Aérodrome :
LOGIN :

S'inscrire | Disclaimer

   EN    FR    IT 

 










Légende :    VFR   VFR Marginal   IFR   IFR Intensif   IFR Très Intensif
Visi : 
Plafond : 
>= 8 km
>= 3000ft
5 à 8 km
1000 à 3000 ft
1500m à 5 km
500 à 1000 ft
800 à 1500m
200 à 500 ft
< 800m
< 200 ft
Symboles :   Orages  Brouillard  Fortes neiges  Fortes précipitations  Vent > 20 kt
SIGMETs :   Divers  Orages  Givrage  Turbulence  Onde Orograph.  Cendres Volcan.






- Altitude de l'aérodrome : 433 ft


LFOC - Chateaudun

DERNIER METAR :
  • 241400Z AUTO 20012KT 9999 ////// 02/02 Q1000

METARs EXPIRÉS :
  • 241330Z AUTO 20013KT 9999 ////// 02/01 Q1000
  • 241300Z AUTO 21011KT 9999 ////// 01/01 Q1000
  • 241230Z AUTO 19012KT 9999 ////// 01/01 Q1000
  • 241200Z AUTO 18014KT 4700 2200 -SN BR ////// 01/00 Q1001
  • 241130Z AUTO 18013KT 1200 0900 R28/1300U +SN BCFG ////// 01/00 Q1001

Prévision TAF périmée.



MET'MAP, la Météo Aéronautique d'un coup d'oeil ! - Copyright ORBIFLY Décembre 2007 - Disclaimer

ORBIFLY MET'MAP TEAM :

Programmation & Développement : Alexandra Zaïnal
Sur une idée originale de : Baudouin d'Aumeries
Assistance à la programmation : Marc-Olivier Méhu
Soutien technique & logistique : Manuel Goepfert

Contact : metmap@orbifly.com




SOURCES & CREDITS :

   NOAA